Time;durP1;ratioP1;P1;durP2;ratioP2;P2;SDS_P1;SDS_P2;PMS_P1;PMS_P2;Temp;Humidity;BMP_temperature;BMP_pressure;BME280_temperature;BME280_humidity;BME280_pressure;Samples;Min_cycle;Max_cycle;Signal;HPM_P1;HPM_P2
2021/04/19 00:00:18;;;;;;;;;;;14.40;39.10;;;;;;5030539;28;77138;-73
2021/04/19 00:02:44;;;;;;;;;;;14.40;39.30;;;;;;5033522;28;75957;-73
2021/04/19 00:05:11;;;;;;;;;;;14.30;39.50;;;;;;5031163;28;75351;-71
2021/04/19 00:07:37;;;;;;;;;;;14.30;40.00;;;;;;5033133;28;75263;-71
2021/04/19 00:10:06;;;;;;;;;;;14.20;39.80;;;;;;5033046;28;75185;-70
2021/04/19 00:12:31;;;;;;;;;;;14.20;40.10;;;;;;5031318;28;75917;-73
2021/04/19 00:14:57;;;;;;;;;;;14.10;40.20;;;;;;5031111;28;75036;-72
2021/04/19 00:17:23;;;;;;;;;;;14.10;40.70;;;;;;5030129;28;75297;-78
2021/04/19 00:19:49;;;;;;;;;;;14.00;40.80;;;;;;5031421;28;78336;-70
2021/04/19 00:22:14;;;;;;;;;;;14.00;40.70;;;;;;5031461;28;74877;-71
2021/04/19 00:24:40;;;;;;;;;;;13.90;40.50;;;;;;5030781;28;76216;-73
2021/04/19 00:27:06;;;;;;;;;;;14.00;40.60;;;;;;5031026;28;78460;-71
2021/04/19 00:29:31;;;;;;;;;;;13.90;40.90;;;;;;5032685;28;74558;-78
2021/04/19 00:31:57;;;;;;;;;;;13.90;41.10;;;;;;5032371;28;74640;-70
2021/04/19 00:34:23;;;;;;;;;;;13.90;41.50;;;;;;5032786;28;74520;-79
2021/04/19 00:36:48;;;;;;;;;;;13.90;41.70;;;;;;5030977;28;76355;-75
2021/04/19 00:39:14;;;;;;;;;;;13.80;41.20;;;;;;5032610;28;74451;-74
2021/04/19 00:41:40;;;;;;;;;;;13.80;42.10;;;;;;5032211;28;75084;-72
2021/04/19 00:44:05;;;;;;;;;;;13.70;41.60;;;;;;5030911;28;77030;-70
2021/04/19 00:46:31;;;;;;;;;;;13.60;41.90;;;;;;5030897;28;77528;-70
2021/04/19 00:48:57;;;;;;;;;;;13.50;42.00;;;;;;5030781;28;74670;-71
2021/04/19 00:51:22;;;;;;;;;;;13.50;42.50;;;;;;5030595;28;76381;-71
2021/04/19 00:53:48;;;;;;;;;;;13.40;42.60;;;;;;5032547;28;74514;-72
2021/04/19 00:56:14;;;;;;;;;;;13.40;42.80;;;;;;5030590;28;75468;-71
2021/04/19 00:58:41;;;;;;;;;;;13.30;44.30;;;;;;5032297;28;74545;-70
2021/04/19 01:01:07;;;;;;;;;;;13.20;43.70;;;;;;5030293;28;76472;-71
2021/04/19 01:03:33;;;;;;;;;;;13.10;44.20;;;;;;5030370;28;77155;-70
2021/04/19 01:05:58;;;;;;;;;;;13.00;44.80;;;;;;5030350;28;77405;-74
2021/04/19 01:08:24;;;;;;;;;;;12.90;44.10;;;;;;5032222;28;74535;-74
2021/04/19 01:10:50;;;;;;;;;;;12.90;44.10;;;;;;5032004;28;75025;-74
2021/04/19 01:13:15;;;;;;;;;;;12.90;43.80;;;;;;5030590;28;77967;-72
2021/04/19 01:15:43;;;;;;;;;;;12.90;44.30;;;;;;5029110;28;94349;-74
2021/04/19 01:18:08;;;;;;;;;;;12.90;43.90;;;;;;5032284;28;74540;-74
2021/04/19 01:20:52;;;;;;;;;;;12.90;43.90;;;;;;5031843;28;75383;-77
2021/04/19 01:23:19;;;;;;;;;;;12.90;43.80;;;;;;5030429;28;76816;-77
2021/04/19 01:25:45;;;;;;;;;;;12.90;43.80;;;;;;5030069;28;75674;-75
2021/04/19 01:28:11;;;;;;;;;;;12.90;43.90;;;;;;5030659;28;77390;-78
2021/04/19 01:30:39;;;;;;;;;;;12.90;43.90;;;;;;5033504;28;76138;-77
2021/04/19 01:33:04;;;;;;;;;;;12.90;44.30;;;;;;5035280;28;74727;-73
2021/04/19 01:35:30;;;;;;;;;;;12.90;44.10;;;;;;5033524;28;78728;-76
2021/04/19 01:37:56;;;;;;;;;;;12.80;44.20;;;;;;5034828;28;75654;-74
2021/04/19 01:40:22;;;;;;;;;;;12.80;44.50;;;;;;5033780;28;77721;-74
2021/04/19 01:42:48;;;;;;;;;;;12.70;44.80;;;;;;5035604;28;74678;-75
2021/04/19 01:45:14;;;;;;;;;;;12.70;44.80;;;;;;5033745;28;77463;-73
2021/04/19 01:47:40;;;;;;;;;;;12.70;44.90;;;;;;5033308;28;75627;-74
2021/04/19 01:50:07;;;;;;;;;;;12.70;45.00;;;;;;5034751;28;75234;-75
2021/04/19 01:52:33;;;;;;;;;;;12.70;45.00;;;;;;5035284;28;74483;-78
2021/04/19 01:54:58;;;;;;;;;;;12.70;44.90;;;;;;5033332;28;78237;-74
2021/04/19 01:57:24;;;;;;;;;;;12.70;45.00;;;;;;5034765;28;75146;-73
2021/04/19 01:59:49;;;;;;;;;;;12.60;45.20;;;;;;5033165;28;77537;-74
2021/04/19 02:02:19;;;;;;;;;;;12.60;45.50;;;;;;5032973;28;75890;-74
2021/04/19 02:04:45;;;;;;;;;;;12.50;45.50;;;;;;5033265;28;75757;-76
2021/04/19 02:07:27;;;;;;;;;;;12.50;45.60;;;;;;5034402;28;75621;-74
2021/04/19 02:09:57;;;;;;;;;;;12.50;45.70;;;;;;5033175;28;76282;-73
2021/04/19 02:12:41;;;;;;;;;;;12.50;45.70;;;;;;5033115;28;75761;-74
2021/04/19 02:15:10;;;;;;;;;;;12.40;45.70;;;;;;5032913;28;75852;-77
2021/04/19 02:17:54;;;;;;;;;;;12.50;45.90;;;;;;5032724;28;75398;-74
2021/04/19 02:20:32;;;;;;;;;;;12.40;45.90;;;;;;5032869;28;75806;-76
2021/04/19 02:23:01;;;;;;;;;;;12.40;46.10;;;;;;5034461;28;75800;-76
2021/04/19 02:25:41;;;;;;;;;;;12.40;46.40;;;;;;5033059;28;77354;-76
2021/04/19 02:28:15;;;;;;;;;;;12.40;46.50;;;;;;5033155;28;77463;-72
2021/04/19 02:30:41;;;;;;;;;;;12.40;46.50;;;;;;5032455;28;75311;-71
2021/04/19 02:33:17;;;;;;;;;;;12.30;46.50;;;;;;5033307;28;78548;-80
2021/04/19 02:35:43;;;;;;;;;;;12.30;46.60;;;;;;5032413;28;75516;-79
2021/04/19 02:38:10;;;;;;;;;;;12.30;46.70;;;;;;5034124;28;75061;-77
2021/04/19 02:40:37;;;;;;;;;;;12.20;46.70;;;;;;5031678;28;75522;-82
2021/04/19 02:43:04;;;;;;;;;;;12.30;47.10;;;;;;5034298;28;75043;-76
2021/04/19 02:45:30;;;;;;;;;;;12.20;47.50;;;;;;5033920;28;75076;-78
2021/04/19 02:47:55;;;;;;;;;;;12.20;47.30;;;;;;5032074;28;75959;-79
2021/04/19 02:50:23;;;;;;;;;;;12.20;47.20;;;;;;5032521;28;78154;-74
2021/04/19 02:52:49;;;;;;;;;;;12.20;47.20;;;;;;5032087;28;77191;-74
2021/04/19 02:55:16;;;;;;;;;;;12.20;47.30;;;;;;5034049;28;75420;-72
2021/04/19 02:57:50;;;;;;;;;;;12.20;47.50;;;;;;5032220;28;74663;-69
2021/04/19 03:00:16;;;;;;;;;;;12.20;47.60;;;;;;5032854;28;75800;-69
2021/04/19 03:02:43;;;;;;;;;;;12.20;47.60;;;;;;5032694;28;77337;-69
2021/04/19 03:05:11;;;;;;;;;;;12.20;47.40;;;;;;5033226;28;75708;-75
2021/04/19 03:07:46;;;;;;;;;;;12.30;47.40;;;;;;5033629;28;75304;-77
2021/04/19 03:10:13;;;;;;;;;;;12.30;47.50;;;;;;5032054;28;75096;-74
2021/04/19 03:12:42;;;;;;;;;;;12.30;47.70;;;;;;5032230;28;77325;-75
2021/04/19 03:15:10;;;;;;;;;;;12.20;47.90;;;;;;5031582;28;76168;-75
2021/04/19 03:17:36;;;;;;;;;;;12.20;47.70;;;;;;5031865;28;74476;-78
2021/04/19 03:20:07;;;;;;;;;;;12.20;47.70;;;;;;5033639;28;74743;-72
2021/04/19 03:22:35;;;;;;;;;;;12.20;47.80;;;;;;5032872;28;76003;-75
2021/04/19 03:25:01;;;;;;;;;;;12.10;48.20;;;;;;5032123;28;75850;-77
2021/04/19 03:27:27;;;;;;;;;;;12.00;48.30;;;;;;5033371;28;75236;-77
2021/04/19 03:29:53;;;;;;;;;;;12.00;48.10;;;;;;5033493;28;75207;-75
2021/04/19 03:32:20;;;;;;;;;;;11.90;48.30;;;;;;5031481;28;76350;-77
2021/04/19 03:34:46;;;;;;;;;;;11.90;48.30;;;;;;5031789;28;76309;-76
2021/04/19 03:37:19;;;;;;;;;;;12.00;48.20;;;;;;5031459;28;77390;-75
2021/04/19 03:39:50;;;;;;;;;;;12.00;48.30;;;;;;5031368;28;75522;-69
2021/04/19 03:42:16;;;;;;;;;;;12.00;48.30;;;;;;5033393;28;75747;-74
2021/04/19 03:44:42;;;;;;;;;;;12.00;48.50;;;;;;5033588;28;74582;-70
2021/04/19 03:47:09;;;;;;;;;;;12.00;48.50;;;;;;5032925;28;74484;-69
2021/04/19 03:49:38;;;;;;;;;;;12.00;48.50;;;;;;5031703;28;77227;-72
2021/04/19 03:52:05;;;;;;;;;;;12.00;48.30;;;;;;5033299;28;74424;-71
2021/04/19 03:54:33;;;;;;;;;;;12.00;48.40;;;;;;5031317;28;77289;-74
2021/04/19 03:57:01;;;;;;;;;;;12.00;48.50;;;;;;5030950;28;77322;-74
2021/04/19 03:59:27;;;;;;;;;;;11.90;48.50;;;;;;5032835;28;75126;-76
2021/04/19 04:01:54;;;;;;;;;;;11.90;48.70;;;;;;5031323;28;75926;-74
2021/04/19 04:04:19;;;;;;;;;;;11.90;49.50;;;;;;5031549;28;77724;-77
2021/04/19 04:06:46;;;;;;;;;;;11.70;49.60;;;;;;5031442;28;77253;-78
2021/04/19 04:09:13;;;;;;;;;;;11.60;50.00;;;;;;5032720;28;75051;-78
2021/04/19 04:11:39;;;;;;;;;;;11.50;49.30;;;;;;5031256;28;77674;-77
2021/04/19 04:14:05;;;;;;;;;;;11.50;49.30;;;;;;5031231;28;75189;-78
2021/04/19 04:16:30;;;;;;;;;;;11.50;49.30;;;;;;5033011;28;74600;-78
2021/04/19 04:18:57;;;;;;;;;;;11.50;49.10;;;;;;5031088;28;75560;-76
2021/04/19 04:21:23;;;;;;;;;;;11.50;49.10;;;;;;5027980;28;75195;-75
2021/04/19 04:23:49;;;;;;;;;;;11.50;48.90;;;;;;5010883;28;76125;-72
2021/04/19 04:26:15;;;;;;;;;;;11.50;49.00;;;;;;5011010;28;76100;-78
2021/04/19 04:28:43;;;;;;;;;;;11.50;48.90;;;;;;5010832;28;76698;-73
2021/04/19 04:31:09;;;;;;;;;;;11.60;49.10;;;;;;5011289;28;76393;-74
2021/04/19 04:33:34;;;;;;;;;;;11.50;49.10;;;;;;5012748;28;74994;-71
2021/04/19 04:36:00;;;;;;;;;;;11.50;49.10;;;;;;5011969;28;75597;-70
2021/04/19 04:38:26;;;;;;;;;;;11.50;49.50;;;;;;5011230;28;75589;-71
2021/04/19 04:40:51;;;;;;;;;;;11.50;49.40;;;;;;5010766;28;75553;-71
2021/04/19 04:43:19;;;;;;;;;;;11.40;49.40;;;;;;5010463;28;76352;-71
2021/04/19 04:45:45;;;;;;;;;;;11.40;49.30;;;;;;5010439;28;76360;-70
2021/04/19 04:48:27;;;;;;;;;;;11.40;49.30;;;;;;5010620;28;74851;-70
2021/04/19 04:51:09;;;;;;;;;;;11.50;49.30;;;;;;5010765;28;76379;-69
2021/04/19 04:53:40;;;;;;;;;;;11.40;49.30;;;;;;5010697;28;77176;-71
2021/04/19 04:56:06;;;;;;;;;;;11.40;49.40;;;;;;5012468;28;74546;-69
2021/04/19 04:58:34;;;;;;;;;;;11.40;49.60;;;;;;5012294;28;74733;-69
2021/04/19 05:01:00;;;;;;;;;;;11.40;49.60;;;;;;5010097;28;77073;-69
2021/04/19 05:03:27;;;;;;;;;;;11.40;49.50;;;;;;5012961;28;74522;-70
2021/04/19 05:05:53;;;;;;;;;;;11.40;49.60;;;;;;5014007;28;75665;-70
2021/04/19 05:08:19;;;;;;;;;;;11.40;49.70;;;;;;5015582;28;74964;-72
2021/04/19 05:10:45;;;;;;;;;;;11.40;49.60;;;;;;5014100;28;75421;-74
2021/04/19 05:13:17;;;;;;;;;;;11.40;49.60;;;;;;5014309;28;77191;-74
2021/04/19 05:15:43;;;;;;;;;;;11.40;49.80;;;;;;5015117;28;75196;-70
2021/04/19 05:18:12;;;;;;;;;;;11.40;50.00;;;;;;5013881;28;77739;-76
2021/04/19 05:20:38;;;;;;;;;;;11.30;49.90;;;;;;5015470;28;75219;-71
2021/04/19 05:23:04;;;;;;;;;;;11.30;50.20;;;;;;5014596;28;74630;-74
2021/04/19 05:25:29;;;;;;;;;;;11.20;50.20;;;;;;5015185;28;75335;-71
2021/04/19 05:27:57;;;;;;;;;;;11.20;50.20;;;;;;5015586;28;74422;-77
2021/04/19 05:30:23;;;;;;;;;;;11.10;50.40;;;;;;5013662;28;76965;-71
2021/04/19 05:32:49;;;;;;;;;;;11.10;50.40;;;;;;5013774;28;76358;-81
2021/04/19 05:35:16;;;;;;;;;;;11.10;50.30;;;;;;5011827;28;75495;-83
2021/04/19 05:37:43;;;;;;;;;;;11.20;50.40;;;;;;5028847;28;75903;-69
2021/04/19 05:40:10;;;;;;;;;;;11.20;50.40;;;;;;5021431;28;76503;-68
2021/04/19 05:42:35;;;;;;;;;;;11.30;50.30;;;;;;5018124;28;75344;-69
2021/04/19 05:45:01;;;;;;;;;;;11.30;50.30;;;;;;5019012;28;77341;-72
2021/04/19 05:47:27;;;;;;;;;;;11.30;50.10;;;;;;5033201;28;75646;-69
2021/04/19 05:49:52;;;;;;;;;;;11.30;50.40;;;;;;5033275;28;78003;-66
2021/04/19 05:52:18;;;;;;;;;;;11.30;50.30;;;;;;5033324;28;77207;-73
2021/04/19 05:54:44;;;;;;;;;;;11.30;50.40;;;;;;5032841;28;75288;-68
2021/04/19 05:57:28;;;;;;;;;;;11.40;50.80;;;;;;5032918;28;76970;-70
2021/04/19 05:59:54;;;;;;;;;;;11.30;50.50;;;;;;5032666;28;76465;-67
2021/04/19 06:02:40;;;;;;;;;;;11.30;50.70;;;;;;5032886;28;75353;-68
2021/04/19 06:05:07;;;;;;;;;;;11.40;50.40;;;;;;5015464;28;77064;-67
2021/04/19 06:07:43;;;;;;;;;;;11.40;50.60;;;;;;5022781;28;75815;-69
2021/04/19 06:10:13;;;;;;;;;;;11.40;50.50;;;;;;5012643;28;76254;-69
2021/04/19 06:12:43;;;;;;;;;;;11.40;50.60;;;;;;5012481;28;74756;-69
2021/04/19 06:15:12;;;;;;;;;;;11.40;50.70;;;;;;5011189;28;75337;-69
2021/04/19 06:17:39;;;;;;;;;;;11.40;50.70;;;;;;5012449;28;75520;-68
2021/04/19 06:20:06;;;;;;;;;;;11.40;50.70;;;;;;5013661;28;75229;-68
2021/04/19 06:22:32;;;;;;;;;;;11.40;50.80;;;;;;5014412;28;74676;-69
2021/04/19 06:24:58;;;;;;;;;;;11.40;50.90;;;;;;5012462;28;76393;-67
2021/04/19 06:27:24;;;;;;;;;;;11.40;51.00;;;;;;5011944;28;76410;-67
2021/04/19 06:29:50;;;;;;;;;;;11.40;51.20;;;;;;5013445;28;75287;-68
2021/04/19 06:32:15;;;;;;;;;;;11.40;51.20;;;;;;5013747;28;74960;-66
2021/04/19 06:34:42;;;;;;;;;;;11.40;51.00;;;;;;5012196;28;76593;-66
2021/04/19 06:37:08;;;;;;;;;;;11.40;51.30;;;;;;5010450;28;76088;-65
2021/04/19 06:39:33;;;;;;;;;;;11.40;51.40;;;;;;5011186;28;74663;-65
2021/04/19 06:42:02;;;;;;;;;;;11.40;51.30;;;;;;5012636;28;74761;-66
2021/04/19 06:44:28;;;;;;;;;;;11.50;51.20;;;;;;5012008;28;75212;-68
2021/04/19 06:46:55;;;;;;;;;;;11.50;51.20;;;;;;5010885;28;75284;-67
2021/04/19 06:49:21;;;;;;;;;;;11.60;51.20;;;;;;5026919;28;75639;-65
2021/04/19 06:51:46;;;;;;;;;;;11.70;51.30;;;;;;5029732;28;74679;-68
2021/04/19 06:54:12;;;;;;;;;;;11.70;51.00;;;;;;5032063;28;74827;-66
2021/04/19 06:56:40;;;;;;;;;;;11.90;50.80;;;;;;5030016;28;76061;-65
2021/04/19 06:59:08;;;;;;;;;;;11.90;50.60;;;;;;5030760;28;75122;-65
2021/04/19 07:01:34;;;;;;;;;;;12.00;50.30;;;;;;5030601;28;77655;-65
2021/04/19 07:04:04;;;;;;;;;;;12.10;50.30;;;;;;5032419;28;74981;-64
2021/04/19 07:06:32;;;;;;;;;;;12.30;50.00;;;;;;5030914;28;74944;-64
2021/04/19 07:09:16;;;;;;;;;;;12.30;49.60;;;;;;5033276;28;75205;-66
2021/04/19 07:11:43;;;;;;;;;;;12.40;49.80;;;;;;5032022;28;75488;-66
2021/04/19 07:14:09;;;;;;;;;;;12.30;49.80;;;;;;5031864;28;77627;-68
2021/04/19 07:16:35;;;;;;;;;;;12.40;49.50;;;;;;5030137;28;76916;-69
2021/04/19 07:19:01;;;;;;;;;;;12.40;49.60;;;;;;5033136;28;75580;-61
2021/04/19 07:21:27;;;;;;;;;;;12.50;49.50;;;;;;5031923;28;76395;-67
2021/04/19 07:23:53;;;;;;;;;;;12.50;48.80;;;;;;5031696;28;77030;-65
2021/04/19 07:26:19;;;;;;;;;;;12.60;48.60;;;;;;5031005;28;77148;-67
2021/04/19 07:28:44;;;;;;;;;;;12.70;48.70;;;;;;5033120;28;74594;-66
2021/04/19 07:31:11;;;;;;;;;;;12.80;48.50;;;;;;5031611;28;76831;-65
2021/04/19 07:33:37;;;;;;;;;;;12.90;48.40;;;;;;5031749;28;75682;-67
2021/04/19 07:36:18;;;;;;;;;;;12.90;48.50;;;;;;5032695;28;75143;-65
2021/04/19 07:38:44;;;;;;;;;;;13.00;48.10;;;;;;5031350;28;77178;-66
2021/04/19 07:41:10;;;;;;;;;;;13.10;47.90;;;;;;4991380;28;75657;-67
2021/04/19 07:43:36;;;;;;;;;;;13.20;47.30;;;;;;5005249;28;77761;-67
2021/04/19 07:46:09;;;;;;;;;;;13.30;47.10;;;;;;5010583;28;75470;-66
2021/04/19 07:48:45;;;;;;;;;;;13.40;46.80;;;;;;5010786;28;75311;-68
2021/04/19 07:51:26;;;;;;;;;;;13.50;45.70;;;;;;5009076;28;75550;-68
2021/04/19 07:54:11;;;;;;;;;;;13.50;45.40;;;;;;5032180;28;74514;-66
2021/04/19 07:56:41;;;;;;;;;;;13.60;45.30;;;;;;5031260;28;75525;-66
2021/04/19 07:59:26;;;;;;;;;;;13.70;43.80;;;;;;5032559;28;74932;-67
2021/04/19 08:02:05;;;;;;;;;;;13.70;44.10;;;;;;5032622;28;74500;-65
2021/04/19 08:04:31;;;;;;;;;;;13.70;44.30;;;;;;5031228;28;75243;-68
2021/04/19 08:06:57;;;;;;;;;;;13.90;43.90;;;;;;5030573;28;77562;-67
2021/04/19 08:09:23;;;;;;;;;;;14.00;43.70;;;;;;5024566;28;75519;-69
2021/04/19 08:11:51;;;;;;;;;;;14.20;43.30;;;;;;5011144;28;75568;-68
2021/04/19 08:14:17;;;;;;;;;;;14.40;42.80;;;;;;5012645;28;75547;-72
2021/04/19 08:16:42;;;;;;;;;;;14.70;42.10;;;;;;5009396;28;75236;-67
2021/04/19 08:19:08;;;;;;;;;;;14.90;41.70;;;;;;5010714;28;75340;-70
2021/04/19 08:21:35;;;;;;;;;;;15.20;41.50;;;;;;5011963;28;75380;-69
2021/04/19 08:24:14;;;;;;;;;;;15.40;41.00;;;;;;5010998;28;77421;-68
2021/04/19 08:26:52;;;;;;;;;;;15.70;40.40;;;;;;5009803;28;75514;-70
2021/04/19 08:29:37;;;;;;;;;;;16.10;39.60;;;;;;4999347;28;74661;-67
2021/04/19 08:32:04;;;;;;;;;;;16.30;39.30;;;;;;5020469;28;76750;-67
2021/04/19 08:34:30;;;;;;;;;;;16.40;38.90;;;;;;5004517;28;76439;-70
2021/04/19 08:36:57;;;;;;;;;;;16.50;39.00;;;;;;4998465;28;75168;-67
2021/04/19 08:39:23;;;;;;;;;;;16.50;39.10;;;;;;4999766;28;75953;-68
2021/04/19 08:41:49;;;;;;;;;;;16.50;38.80;;;;;;5001733;28;75541;-68
2021/04/19 08:44:14;;;;;;;;;;;16.50;38.20;;;;;;4997241;28;75155;-66
2021/04/19 08:46:40;;;;;;;;;;;16.50;38.80;;;;;;4992265;28;75258;-67
2021/04/19 08:49:06;;;;;;;;;;;16.50;38.70;;;;;;5004812;28;74668;-67
2021/04/19 08:51:33;;;;;;;;;;;16.60;39.10;;;;;;5001373;28;75411;-67
2021/04/19 08:53:58;;;;;;;;;;;16.70;38.40;;;;;;4999440;28;77461;-70
2021/04/19 08:56:24;;;;;;;;;;;16.80;38.70;;;;;;5000760;28;76520;-67
2021/04/19 08:58:50;;;;;;;;;;;16.90;38.80;;;;;;5003160;28;76488;-70
2021/04/19 09:01:16;;;;;;;;;;;16.90;38.40;;;;;;4999501;28;77109;-71
2021/04/19 09:03:41;;;;;;;;;;;17.00;37.90;;;;;;4999915;28;74564;-69
2021/04/19 09:06:14;;;;;;;;;;;16.90;37.00;;;;;;5005375;28;77276;-70
2021/04/19 09:08:40;;;;;;;;;;;16.70;37.90;;;;;;5001631;28;75649;-70
2021/04/19 09:11:06;;;;;;;;;;;16.60;38.30;;;;;;4998838;28;77835;-71
2021/04/19 09:13:34;;;;;;;;;;;16.70;38.90;;;;;;4996324;28;75500;-68
2021/04/19 09:16:20;;;;;;;;;;;17.00;38.30;;;;;;4996577;28;75225;-70
2021/04/19 09:18:46;;;;;;;;;;;17.30;38.30;;;;;;4999277;28;75149;-69
2021/04/19 09:21:31;;;;;;;;;;;17.40;37.60;;;;;;4998759;28;74922;-69
2021/04/19 09:23:57;;;;;;;;;;;17.50;37.20;;;;;;4999799;28;79788;-68
2021/04/19 09:27:01;;;;;;;;;;;17.80;36.60;;;;;;4998581;28;78337;-67
2021/04/19 09:29:30;;;;;;;;;;;17.90;35.50;;;;;;4959243;28;75425;-68
2021/04/19 09:32:17;;;;;;;;;;;18.20;36.00;;;;;;4979440;28;75683;-68
2021/04/19 09:34:49;;;;;;;;;;;18.40;35.40;;;;;;5004717;28;76049;-66
2021/04/19 09:37:16;;;;;;;;;;;18.50;34.90;;;;;;5003371;28;75981;-66
2021/04/19 09:39:48;;;;;;;;;;;18.50;35.10;;;;;;5000356;28;75841;-67
2021/04/19 09:42:15;;;;;;;;;;;18.50;34.80;;;;;;4999263;28;76529;-67
2021/04/19 09:45:00;;;;;;;;;;;18.50;34.40;;;;;;4997345;28;75529;-67
2021/04/19 09:47:45;;;;;;;;;;;18.50;34.20;;;;;;4999245;28;76079;-67
2021/04/19 09:50:10;;;;;;;;;;;18.60;34.40;;;;;;5000531;28;77607;-67
2021/04/19 09:52:36;;;;;;;;;;;18.70;34.50;;;;;;5004812;28;75252;-67
2021/04/19 09:55:02;;;;;;;;;;;18.70;34.50;;;;;;5007083;28;77012;-67
2021/04/19 09:57:28;;;;;;;;;;;18.70;34.70;;;;;;5003315;28;75526;-66
2021/04/19 09:59:53;;;;;;;;;;;18.70;34.80;;;;;;5005955;28;75734;-68
2021/04/19 10:02:19;;;;;;;;;;;18.70;34.60;;;;;;5002499;28;74653;-68
2021/04/19 10:04:46;;;;;;;;;;;18.90;34.70;;;;;;5003439;28;75717;-67
2021/04/19 10:07:12;;;;;;;;;;;19.30;34.50;;;;;;5006527;28;75439;-67
2021/04/19 10:09:40;;;;;;;;;;;19.50;34.30;;;;;;5000201;28;74757;-68
2021/04/19 10:12:07;;;;;;;;;;;19.80;34.00;;;;;;4992807;28;78456;-68
2021/04/19 10:14:33;;;;;;;;;;;20.00;34.00;;;;;;4993051;28;77197;-68
2021/04/19 10:16:59;;;;;;;;;;;20.20;32.20;;;;;;4992398;28;74585;-66
2021/04/19 10:19:25;;;;;;;;;;;20.00;32.60;;;;;;5006664;28;75988;-70
2021/04/19 10:22:20;;;;;;;;;;;20.00;32.90;;;;;;5006567;28;78658;-65
2021/04/19 10:24:50;;;;;;;;;;;20.30;33.30;;;;;;4988971;28;75113;-64
2021/04/19 10:27:25;;;;;;;;;;;20.70;32.70;;;;;;4992459;28;74681;-68
2021/04/19 10:29:52;;;;;;;;;;;20.90;32.80;;;;;;5007536;28;77407;-68
2021/04/19 10:32:27;;;;;;;;;;;21.20;32.10;;;;;;5011860;28;75868;-68
2021/04/19 10:34:53;;;;;;;;;;;21.50;32.00;;;;;;5012700;28;78136;-68
2021/04/19 10:37:18;;;;;;;;;;;21.60;32.10;;;;;;5011973;28;78089;-68
2021/04/19 10:39:45;;;;;;;;;;;21.90;32.20;;;;;;5013558;28;75513;-68
2021/04/19 10:42:11;;;;;;;;;;;21.90;30.90;;;;;;5014108;28;75174;-68
2021/04/19 10:44:38;;;;;;;;;;;22.00;30.90;;;;;;5012166;28;77167;-68
2021/04/19 10:47:04;;;;;;;;;;;22.30;30.60;;;;;;5011944;28;77543;-69
2021/04/19 10:49:30;;;;;;;;;;;22.50;30.50;;;;;;5013436;28;75682;-69
2021/04/19 10:51:57;;;;;;;;;;;23.00;30.30;;;;;;5014017;28;74415;-69
2021/04/19 10:54:27;;;;;;;;;;;23.50;28.40;;;;;;5012539;28;77183;-68
2021/04/19 10:56:53;;;;;;;;;;;23.70;28.70;;;;;;5012164;28;76611;-70
2021/04/19 10:59:22;;;;;;;;;;;23.70;29.30;;;;;;5013323;28;75070;-70
2021/04/19 11:01:54;;;;;;;;;;;23.90;29.00;;;;;;5011336;28;76733;-69
2021/04/19 11:04:21;;;;;;;;;;;24.00;28.90;;;;;;5012356;28;76939;-69
2021/04/19 11:06:47;;;;;;;;;;;24.30;29.10;;;;;;5013527;28;75156;-70
2021/04/19 11:09:16;;;;;;;;;;;24.60;28.10;;;;;;5011797;28;74593;-71
2021/04/19 11:11:42;;;;;;;;;;;24.80;28.30;;;;;;5012593;28;75273;-69
2021/04/19 11:14:12;;;;;;;;;;;25.30;28.00;;;;;;5009418;28;77532;-69
2021/04/19 11:17:08;;;;;;;;;;;26.10;27.50;;;;;;5011650;28;76238;-68
2021/04/19 11:19:44;;;;;;;;;;;26.60;25.50;;;;;;5010880;28;76059;-69
2021/04/19 11:22:18;;;;;;;;;;;26.70;26.40;;;;;;5012264;28;78575;-69
2021/04/19 11:24:44;;;;;;;;;;;27.60;25.80;;;;;;5011973;28;75414;-69
2021/04/19 11:27:10;;;;;;;;;;;28.70;24.90;;;;;;5011660;28;76749;-69
2021/04/19 11:29:37;;;;;;;;;;;29.70;23.90;;;;;;5000241;28;75080;-68
2021/04/19 11:32:03;;;;;;;;;;;30.90;23.00;;;;;;5005278;28;78201;-69
2021/04/19 11:34:34;;;;;;;;;;;31.80;22.20;;;;;;5011716;28;77516;-70
2021/04/19 11:36:59;;;;;;;;;;;32.40;20.60;;;;;;5011105;28;77795;-71
2021/04/19 11:39:25;;;;;;;;;;;32.90;20.80;;;;;;5013121;28;75122;-69
2021/04/19 11:41:52;;;;;;;;;;;33.10;20.10;;;;;;5026287;28;74494;-71
2021/04/19 11:44:17;;;;;;;;;;;33.30;20.70;;;;;;5033250;28;75357;-73
2021/04/19 11:46:47;;;;;;;;;;;34.40;19.50;;;;;;5002319;28;75155;-69
2021/04/19 11:49:16;;;;;;;;;;;35.40;18.80;;;;;;4996475;28;75100;-69
2021/04/19 11:51:42;;;;;;;;;;;36.20;17.40;;;;;;5013245;28;75360;-70
2021/04/19 11:54:08;;;;;;;;;;;36.20;18.30;;;;;;5012861;28;75046;-71
2021/04/19 11:56:34;;;;;;;;;;;36.80;17.00;;;;;;5012910;28;75096;-69
2021/04/19 11:58:59;;;;;;;;;;;37.10;17.40;;;;;;5012241;28;74772;-69
2021/04/19 12:01:25;;;;;;;;;;;37.90;17.10;;;;;;5013096;28;75640;-69
2021/04/19 12:03:51;;;;;;;;;;;38.60;16.80;;;;;;5012888;28;75109;-69
2021/04/19 12:06:17;;;;;;;;;;;39.00;14.90;;;;;;5012709;28;75459;-69
2021/04/19 12:08:44;;;;;;;;;;;38.50;16.50;;;;;;5006918;28;76326;-69
2021/04/19 12:11:11;;;;;;;;;;;39.00;15.90;;;;;;5008678;28;76079;-70
2021/04/19 12:13:37;;;;;;;;;;;38.10;15.40;;;;;;5011827;28;75804;-67
2021/04/19 12:16:02;;;;;;;;;;;36.50;17.20;;;;;;5018574;28;74834;-69
2021/04/19 12:18:29;;;;;;;;;;;34.80;18.50;;;;;;5008655;28;77913;-70
2021/04/19 12:20:54;;;;;;;;;;;33.80;19.20;;;;;;5008546;28;77036;-70
2021/04/19 12:23:20;;;;;;;;;;;34.50;17.50;;;;;;5007441;28;75421;-69
2021/04/19 12:25:50;;;;;;;;;;;35.90;17.30;;;;;;5012024;28;75361;-69
2021/04/19 12:28:16;;;;;;;;;;;37.40;17.00;;;;;;5012629;28;75806;-69
2021/04/19 12:30:42;;;;;;;;;;;39.20;16.30;;;;;;5009716;28;75686;-69
2021/04/19 12:33:08;;;;;;;;;;;40.80;14.60;;;;;;5010740;28;75661;-70
2021/04/19 12:35:33;;;;;;;;;;;41.50;14.50;;;;;;5011236;28;76508;-70
2021/04/19 12:37:59;;;;;;;;;;;41.80;14.80;;;;;;5011927;28;76493;-71
2021/04/19 12:40:28;;;;;;;;;;;43.00;14.50;;;;;;5010353;28;77752;-69
2021/04/19 12:42:54;;;;;;;;;;;43.70;14.00;;;;;;5010258;28;76213;-71
2021/04/19 12:45:24;;;;;;;;;;;43.50;13.40;;;;;;5009110;28;76281;-70
2021/04/19 12:47:51;;;;;;;;;;;43.20;12.90;;;;;;5011460;28;74973;-70
2021/04/19 12:50:17;;;;;;;;;;;42.50;14.00;;;;;;5013545;28;74570;-70
2021/04/19 12:52:42;;;;;;;;;;;42.70;14.10;;;;;;5028241;28;75132;-70
2021/04/19 12:55:08;;;;;;;;;;;43.70;13.30;;;;;;5030585;28;75170;-66
2021/04/19 12:57:34;;;;;;;;;;;43.80;13.20;;;;;;5031989;28;75177;-68
2021/04/19 12:59:59;;;;;;;;;;;41.70;13.60;;;;;;5031886;28;74677;-69
2021/04/19 13:02:25;;;;;;;;;;;39.30;15.60;;;;;;5032185;28;74518;-68
2021/04/19 13:04:50;;;;;;;;;;;37.10;16.10;;;;;;5032225;28;75109;-68
2021/04/19 13:07:16;;;;;;;;;;;35.50;16.60;;;;;;5011644;28;76761;-68
2021/04/19 13:09:42;;;;;;;;;;;34.00;18.10;;;;;;5000844;28;76423;-69
2021/04/19 13:12:08;;;;;;;;;;;32.90;18.60;;;;;;5007943;28;77663;-69
2021/04/19 13:14:34;;;;;;;;;;;32.00;20.30;;;;;;5012304;28;74826;-69
2021/04/19 13:17:00;;;;;;;;;;;31.70;20.80;;;;;;5011808;28;75035;-68
2021/04/19 13:19:25;;;;;;;;;;;31.60;21.00;;;;;;5010429;28;78076;-72
2021/04/19 13:21:51;;;;;;;;;;;31.40;19.90;;;;;;5011859;28;75967;-69
2021/04/19 13:24:19;;;;;;;;;;;31.30;20.60;;;;;;5012266;28;75185;-70
2021/04/19 13:26:48;;;;;;;;;;;30.70;20.80;;;;;;5013777;28;74559;-68
2021/04/19 13:29:14;;;;;;;;;;;30.00;21.40;;;;;;5014197;28;77972;-69
2021/04/19 13:31:45;;;;;;;;;;;29.90;20.50;;;;;;5014361;28;75862;-69
2021/04/19 13:34:11;;;;;;;;;;;29.30;21.00;;;;;;5014239;28;75613;-69
2021/04/19 13:36:37;;;;;;;;;;;28.80;22.10;;;;;;5014354;28;75029;-69
2021/04/19 13:39:02;;;;;;;;;;;28.90;22.30;;;;;;5015534;28;74991;-67
2021/04/19 13:41:30;;;;;;;;;;;29.70;21.40;;;;;;5015196;28;75092;-68
2021/04/19 13:43:57;;;;;;;;;;;31.30;20.10;;;;;;5017736;28;77708;-68
2021/04/19 13:46:22;;;;;;;;;;;32.00;19.60;;;;;;5034887;28;75139;-69
2021/04/19 13:48:48;;;;;;;;;;;32.80;19.20;;;;;;5033794;28;74554;-69
2021/04/19 13:51:14;;;;;;;;;;;32.90;18.50;;;;;;5016902;28;75683;-72
2021/04/19 13:53:39;;;;;;;;;;;31.90;19.40;;;;;;5035678;28;74585;-72
2021/04/19 13:56:08;;;;;;;;;;;30.70;19.40;;;;;;5033912;28;75222;-67
2021/04/19 13:58:34;;;;;;;;;;;29.20;20.70;;;;;;5004453;28;75622;-70
2021/04/19 14:01:00;;;;;;;;;;;28.90;21.50;;;;;;5029742;28;75544;-68
2021/04/19 14:03:25;;;;;;;;;;;29.00;21.00;;;;;;5033772;28;74903;-68
2021/04/19 14:05:51;;;;;;;;;;;30.30;20.50;;;;;;5033416;28;75660;-68
2021/04/19 14:08:16;;;;;;;;;;;32.90;18.70;;;;;;5032159;28;75390;-68
2021/04/19 14:10:42;;;;;;;;;;;33.70;18.30;;;;;;5024456;28;78091;-68
2021/04/19 14:13:14;;;;;;;;;;;33.50;18.60;;;;;;5029140;28;74794;-68
2021/04/19 14:15:40;;;;;;;;;;;33.00;18.40;;;;;;5028125;28;75400;-68
2021/04/19 14:18:06;;;;;;;;;;;33.00;17.80;;;;;;5011213;28;74917;-69
2021/04/19 14:20:32;;;;;;;;;;;34.30;17.70;;;;;;5011495;28;77913;-67